This is the latest recevied weather packets stored in our database for station/object W4NDF-13. If no packets are shown the sender has not sent any weather packets the latest 10 day(s).
| Time | Temp. | Humidity | Pressure | Rain* | Wind** | Luminosity | Snow |
|---|---|---|---|---|---|---|---|
| 1788484785 | 28.89° C | 82% | 1014.9 hPa | 0 mm | - | 0 W/m² | - |
| 1788483872 | 29.44° C | 82% | 1014.6 hPa | 0 mm | - | 0 W/m² | - |
| 1788475078 | 31.67° C | 71% | 1014.3 hPa | 0 mm | - | 188 W/m² | - |
| 1788474170 | 32.22° C | 67% | 1014.7 hPa | 0 mm | - | 150 W/m² | - |
| 1788473865 | 32.78° C | 68% | 1015 hPa | 0 mm | - | 198 W/m² | - |
| 1788472656 | 32.22° C | 67% | 1015.1 hPa | 0 mm | - | 157 W/m² | - |
| 1788472050 | 32.22° C | 71% | 1015.2 hPa | 0 mm | - | 395 W/m² | - |
| 1788471440 | 31.11° C | 77% | 1015.3 hPa | 0 mm | - | 300 W/m² | - |
| 1788470227 | 31.11° C | 77% | 1015.2 hPa | 0 mm | - | 248 W/m² | - |
| 1788468714 | 31.11° C | 77% | 1015.6 hPa | 0 mm | - | 149 W/m² | - |
| 1788468410 | 31.11° C | 75% | 1015.4 hPa | 0 mm | - | 117 W/m² | - |
| 1788468106 | 31.11° C | 75% | 1015.3 hPa | 0 mm | - | 136 W/m² | - |
| 1788467801 | 31.11° C | 74% | 1015.5 hPa | 0 mm | - | 122 W/m² | - |
| 1788467191 | 32.22° C | 71% | 1015.4 hPa | 0 mm | - | 251 W/m² | - |
| 1788466280 | 32.22° C | 70% | 1015.5 hPa | 0 mm | - | 437 W/m² | - |
| 1788463843 | 30.56° C | 73% | 1015.9 hPa | 0 mm | - | 178 W/m² | - |
| 1788463540 | 30° C | 75% | 1016 hPa | 0 mm | - | 162 W/m² | - |
| 1788450804 | 31.67° C | 76% | 1017.3 hPa | 0 mm | - | 720 W/m² | - |
| 1788450499 | 31.11° C | 76% | 1017.5 hPa | 0 mm | - | 754 W/m² | - |
| 1788447768 | 30.56° C | 82% | 1017 hPa | 0 mm | - | 274 W/m² | - |
| 1788447463 | 30.56° C | 81% | 1016.9 hPa | 0 mm | - | 168 W/m² | - |
| 1788447159 | 30.56° C | 81% | 1017.1 hPa | 0 mm | - | 329 W/m² | - |
| 1788446249 | 30.56° C | 74% | 1017.1 hPa | 0 mm | - | 156 W/m² | - |
| 1788445032 | 31.11° C | 74% | 1017 hPa | 0 mm | - | 330 W/m² | - |
| 1788444423 | 30.56° C | 74% | 1016.9 hPa | 0 mm | - | 376 W/m² | - |
* Rain latest hour (hover to see other rain measurements)
** Current wind speed in m/s (hover to see current wind gust speed)